Flight Track Log - Related Links

Times and Time Zones

All times are in EDT time to prevent confusion due to time zone crossing. See the DAL1716 flight status page for this flight to view local times or setup timezone preferences in your user account.

Time Position Orientation Groundspeed Altitude Reporting Facility
EDT Latitude Longitude Course Direction KTS MPH feet Rate Location/Type
Thu 10:11:20 AM 39.7667 -104.6000 107° East 244 281 7,700  Level Denver TRACON
Thu 10:12:20 AM 39.7333 -104.5167 117° Southeast 284 327 9,800 2,211 Climbing Denver TRACON
Thu 10:13:00 AM 39.6709 -104.0711 105° East  Level FlightAware Approximate
Thu 10:13:14 AM 39.7000 -104.4167 113° Southeast 303 349 11,900  Level Denver TRACON
Thu 10:14:00 AM 39.6243 -103.9228 113° Southeast  Level FlightAware Approximate
Thu 10:14:12 AM 39.7139 -104.3167 80° East 315 362 14,100  Level Denver Center
Thu 10:15:00 AM 39.5788 -103.7742 123° Southeast  Level FlightAware Approximate
Thu 10:15:14 AM 39.7103 -104.1997 92° East 337 388 16,300  Level Denver Center
Thu 10:16:00 AM 39.5377 -103.6242 107° East  Level FlightAware Approximate
Thu 10:16:16 AM 39.6728 -104.0761 111° Southeast 345 397 18,000  Level Denver Center
Thu 10:17:18 AM 39.6353 -103.9428 110° East 398 458 19,000 1,258 Climbing Denver Center
Thu 10:18:20 AM 39.5933 -103.8025 111° Southeast 419 482 20,600 1,452 Climbing Denver Center
Thu 10:19:22 AM 39.5553 -103.6597 109° East 420 483 22,000 1,403 Climbing Denver Center
Thu 10:20:24 AM 39.5158 -103.5047 108° East 448 516 23,500 1,500 Climbing Denver Center
Thu 10:21:26 AM 39.4653 -103.3142 109° East 466 536 25,100 1,452 Climbing Denver Center
Thu 10:22:28 AM 39.4228 -103.1514 109° East 476 548 26,500 1,161 Climbing Denver Center
Thu 10:23:30 AM 39.3772 -102.9842 109° East 490 564 27,500 968 Climbing Denver Center
Thu 10:24:32 AM 39.3322 -102.8147 109° East 498 573 28,500 1,306 Climbing Denver Center
Thu 10:25:34 AM 39.2803 -102.6253 109° East 503 579 30,200 1,355 Climbing Denver Center
Thu 10:26:36 AM 39.2364 -102.4636 109° East 500 575 31,300 1,147 Climbing Denver Center
Thu 10:27:50 AM 39.1842 -102.2742 110° East 501 577 32,800 1,226 Climbing Denver Center
Thu 10:28:53 AM 39.1322 -102.0864 110° East 497 572 34,100 1,440 Climbing Denver Center
Thu 10:29:55 AM 39.0797 -101.9011 110° East 494 568 35,800 1,210 Climbing Denver Center
Thu 10:30:57 AM 39.0358 -101.7475 110° East 482 555 36,600 581 Climbing Denver Center
Thu 10:31:59 AM 38.9836 -101.5653 110° East 485 558 37,000 194 Climbing Denver Center
Thu 10:33:01 AM 38.9378 -101.4100 111° Southeast 486 559 37,000  Level Denver Center
Thu 10:34:03 AM 38.8847 -101.2258 110° East 490 564 37,000  Level Denver Center
Thu 10:35:05 AM 38.8381 -101.0697 111° Southeast 489 563 37,000  Level Denver Center
Thu 10:36:07 AM 38.7850 -100.8844 110° East 494 568 37,000  Level Denver Center
Thu 10:37:09 AM 38.7378 -100.7275 111° Southeast 494 568 37,000  Level Denver Center
Thu 10:38:11 AM 38.6908 -100.5711 111° Southeast 492 566 37,000  Level Denver Center
Thu 10:39:13 AM 38.6364 -100.3900 111° Southeast 489 563 37,000  Level Denver Center
Thu 10:39:49 AM 38.6042 -100.2828 111° Southeast 490 564 37,000  Level Kansas City Center
Thu 10:40:52 AM 38.5578 -100.1286 111° Southeast 486 559 37,000 192 Level Kansas City Center
Thu 10:41:54 AM 38.5025 -99.9494 111° Southeast 485 558 37,400 581 Climbing Kansas City Center
Thu 10:42:56 AM 38.4550 -99.7964 112° Southeast 484 557 38,200 774 Climbing Kansas City Center
Thu 10:43:58 AM 38.4006 -99.6200 111° Southeast 480 552 39,000 387 Climbing Kansas City Center
Thu 10:45:00 AM 38.3628 -99.4939 111° Southeast 476 548 39,000  Level Kansas City Center
Thu 10:46:02 AM 38.3028 -99.3061 112° Southeast 475 547 39,000  Level Kansas City Center
Thu 10:47:04 AM 38.2531 -99.1503 112° Southeast 475 547 39,000  Level Kansas City Center
Thu 10:48:06 AM 38.2033 -98.9928 112° Southeast 477 549 39,000  Level Kansas City Center
Thu 10:49:08 AM 38.1544 -98.8367 112° Southeast 476 548 39,000  Level Kansas City Center
Thu 10:50:10 AM 38.1044 -98.6814 112° Southeast 474 545 39,000  Level Kansas City Center
Thu 10:51:12 AM 38.0547 -98.5269 112° Southeast 473 544 39,000  Level Kansas City Center
Thu 10:52:14 AM 37.9950 -98.3419 112° Southeast 472 543 39,000  Level Kansas City Center
Thu 10:53:16 AM 37.9456 -98.1903 112° Southeast 468 539 39,000  Level Kansas City Center
Thu 10:54:18 AM 37.8983 -98.0517 113° Southeast 469 540 39,000  Level Kansas City Center
Thu 10:55:20 AM 37.8386 -97.8658 112° Southeast 470 541 39,000  Level Kansas City Center
Thu 10:56:22 AM 37.7831 -97.7031 113° Southeast 478 550 39,000  Level Kansas City Center
Thu 10:57:24 AM 37.7344 -97.5561 113° Southeast 474 545 39,000  Level Kansas City Center
Thu 10:58:26 AM 37.6708 -97.4028 118° Southeast 476 548 39,000  Level Kansas City Center
Thu 10:59:28 AM 37.6086 -97.2522 118° Southeast 481 554 39,000  Level Kansas City Center
Thu 11:00:32 AM 37.5475 -97.1056 118° Southeast 474 545 39,000  Level Kansas City Center
Thu 11:01:34 AM 37.4861 -96.9583 118° Southeast 475 547 39,000  Level Kansas City Center
Thu 11:02:36 AM 37.4131 -96.7828 118° Southeast 472 543 39,000  Level Kansas City Center
Thu 11:03:38 AM 37.3550 -96.6358 116° Southeast 471 542 39,000  Level Kansas City Center
Thu 11:04:40 AM 37.2917 -96.4903 119° Southeast 474 545 39,000  Level Kansas City Center
Thu 11:05:42 AM 37.2250 -96.3292 117° Southeast 475 547 39,000  Level Kansas City Center
Thu 11:06:44 AM 37.1603 -96.1828 119° Southeast 479 551 39,000  Level Kansas City Center
Thu 11:07:46 AM 37.0967 -96.0344 118° Southeast 481 554 39,000  Level Kansas City Center
Thu 11:08:48 AM 37.0322 -95.8842 118° Southeast 485 558 39,000  Level Kansas City Center
Thu 11:09:50 AM 36.9675 -95.7364 119° Southeast 483 556 39,000  Level Kansas City Center
Thu 11:10:52 AM 36.9028 -95.5878 119° Southeast 484 557 39,000  Level Kansas City Center
Thu 11:11:54 AM 36.8244 -95.4108 119° Southeast 479 551 39,000  Level Kansas City Center
Thu 11:12:57 AM 36.7581 -95.2592 119° Southeast 486 559 39,000  Level Kansas City Center
Thu 11:13:59 AM 36.6914 -95.1067 119° Southeast 493 567 39,000  Level Kansas City Center
Thu 11:15:01 AM 36.6225 -94.9522 119° Southeast 502 578 39,000  Level Kansas City Center
Thu 11:16:03 AM 36.5550 -94.8022 119° Southeast 496 571 39,000  Level Kansas City Center
Thu 11:17:05 AM 36.4881 -94.6522 119° Southeast 494 568 39,000  Level Kansas City Center
Thu 11:18:07 AM 36.4203 -94.5028 119° Southeast 494 568 39,000  Level Kansas City Center
Thu 11:19:09 AM 36.3522 -94.3558 120° Southeast 491 565 39,000  Level Kansas City Center
Thu 11:19:50 AM 36.3006 -94.2350 118° Southeast 494 568 39,000 59 Level Memphis Center
Thu 11:20:50 AM 36.2406 -94.0881 117° Southeast 489 563 39,100  Climbing Memphis Center
Thu 11:21:50 AM 36.1928 -93.9369 111° Southeast 477 549 39,000 -50 Descending Memphis Center
Thu 11:22:50 AM 36.1550 -93.7964 108° East 472 543 39,000  Level Memphis Center
Thu 11:23:50 AM 36.1133 -93.6431 109° East 472 543 39,000  Level Memphis Center
Thu 11:24:50 AM 36.0672 -93.4897 110° East 472 543 39,000  Level Memphis Center
Thu 11:25:50 AM 36.0214 -93.3211 109° East 472 543 39,000  Level Memphis Center
Thu 11:26:50 AM 35.9769 -93.1631 109° East 477 549 39,000  Level Memphis Center
Thu 11:27:50 AM 35.9325 -93.0053 109° East 482 555 39,000  Level Memphis Center
Thu 11:28:50 AM 35.8878 -92.8500 110° East 482 555 39,000  Level Memphis Center
Thu 11:29:50 AM 35.8428 -92.6900 109° East 482 555 39,000  Level Memphis Center
Thu 11:30:50 AM 35.7956 -92.5350 111° Southeast 482 555 39,000  Level Memphis Center
Thu 11:31:50 AM 35.7483 -92.3753 110° East 488 562 39,000  Level Memphis Center
Thu 11:32:50 AM 35.7028 -92.2206 110° East 488 562 39,000  Level Memphis Center
Thu 11:33:50 AM 35.6569 -92.0639 110° East 488 562 39,000  Level Memphis Center
Thu 11:34:50 AM 35.6111 -91.9097 110° East 488 562 39,000  Level Memphis Center
Thu 11:35:50 AM 35.5650 -91.7556 110° East 488 562 39,000  Level Memphis Center
Thu 11:36:50 AM 35.5186 -91.5992 110° East 488 562 39,000  Level Memphis Center
Thu 11:37:50 AM 35.4742 -91.4456 110° East 483 556 39,000  Level Memphis Center
Thu 11:38:50 AM 35.4272 -91.2972 111° Southeast 468 539 39,000  Level Memphis Center
Thu 11:39:50 AM 35.3803 -91.1439 111° Southeast 477 549 39,000  Level Memphis Center
Thu 11:40:50 AM 35.3333 -90.9933 111° Southeast 470 541 39,000  Level Memphis Center
Thu 11:41:50 AM 35.2858 -90.8428 111° Southeast 475 547 39,000  Level Memphis Center
Thu 11:42:50 AM 35.2406 -90.6928 110° East 480 552 39,000  Level Memphis Center
Thu 11:43:50 AM 35.1928 -90.5375 111° Southeast 475 547 39,000  Level Memphis Center
Thu 11:44:50 AM 35.1450 -90.3875 111° Southeast 475 547 39,000  Level Memphis Center
Thu 11:45:50 AM 35.1033 -90.2556 111° Southeast 475 547 39,000  Level Memphis Center
Thu 11:46:50 AM 35.0550 -90.1033 111° Southeast 475 547 39,000  Level Memphis Center
Thu 11:47:50 AM 35.0150 -89.9539 108° East 468 539 39,000  Level Memphis Center
Thu 11:48:50 AM 34.9936 -89.7917 99° East 471 542 39,000  Level Memphis Center
Thu 11:49:50 AM 34.9675 -89.6094 100° East 489 563 39,000  Level Memphis Center
Thu 11:50:50 AM 34.9394 -89.4553 102° East 484 557 39,000  Level Memphis Center
Thu 11:51:50 AM 34.9153 -89.2986 101° East 473 544 39,000  Level Memphis Center
Thu 11:52:50 AM 34.8908 -89.1444 101° East 468 539 39,000  Level Memphis Center
Thu 11:53:50 AM 34.8683 -88.9903 100° East 468 539 39,000  Level Memphis Center
Thu 11:54:50 AM 34.8458 -88.8489 101° East 468 539 39,000  Level Memphis Center
Thu 11:55:50 AM 34.8208 -88.6900 101° East 468 539 39,000 -350 Level Memphis Center
Thu 11:56:50 AM 34.7958 -88.5364 101° East 468 539 38,300 -1,000 Descending Memphis Center
Thu 11:57:50 AM 34.7725 -88.3825 100° East 463 533 37,000 -1,000 Descending Memphis Center
Thu 11:58:50 AM 34.7492 -88.2264 100° East 463 533 36,300 -900 Descending Memphis Center
Thu 11:59:50 AM 34.7189 -88.0553 102° East 500 575 35,200 -650 Descending Memphis Center
Thu 12:00:50 PM 34.6925 -87.8767 100° East 505 581 35,000 -350 Descending Memphis Center
Thu 12:01:50 PM 34.6681 -87.7083 100° East 505 581 34,500 -779 Descending Memphis Center
Thu 12:03:24 PM 34.6256 -87.4542 101° East 488 562 33,000 -588 Descending Atlanta Center
Thu 12:04:23 PM 34.5944 -87.2889 103° East 495 570 33,000  Level Atlanta Center
Thu 12:05:23 PM 34.5650 -87.1414 104° East 495 570 33,000  Level Atlanta Center
Thu 12:06:24 PM 34.5333 -86.9789 103° East 495 570 33,000  Level Atlanta Center
Thu 12:07:23 PM 34.5019 -86.8139 103° East 495 570 33,000  Level Atlanta Center
Thu 12:08:23 PM 34.4678 -86.6517 104° East 489 563 33,000  Level Atlanta Center
Thu 12:09:24 PM 34.4314 -86.4917 105° East 495 570 33,000  Level Atlanta Center
Thu 12:10:24 PM 34.3947 -86.3372 106° East 495 570 33,000  Level Atlanta Center
Thu 12:11:24 PM 34.3581 -86.1750 105° East 495 570 33,000 -950 Level Atlanta Center
Thu 12:12:24 PM 34.3231 -86.0183 105° East 495 570 31,100 -2,319 Descending Atlanta Center
Thu 12:13:23 PM 34.2881 -85.8567 105° East 495 570 28,400 -3,025 Descending Atlanta Center
Thu 12:14:23 PM 34.2444 -85.6822 107° East 490 564 25,100 -2,750 Descending Atlanta Center
Thu 12:15:23 PM 34.2089 -85.5283 106° East 484 557 22,900 -2,975 Descending Atlanta Center
Thu 12:16:24 PM 34.1731 -85.3794 106° East 465 535 19,100 -3,620 Descending Atlanta Center
Thu 12:17:24 PM 34.1411 -85.2411 106° East 447 514 15,600 -2,550 Descending Atlanta Center
Thu 12:18:24 PM 34.1069 -85.1025 107° East 430 495 14,000 -857 Descending Atlanta Center
Thu 12:19:23 PM 34.0558 -84.9817 117° Southeast 413 475 13,900 -550 Descending Atlanta Center
Thu 12:20:24 PM 33.9772 -84.8806 133° Southeast 412 474 12,900 -942 Descending Atlanta Center
Thu 12:21:24 PM 33.9006 -84.7822 133° Southeast 405 466 12,000 -486 Descending Atlanta Center
Thu 12:22:15 PM 33.8333 -84.7000 135° Southeast 399 459 12,000  Level Atlanta TRACON
Thu 12:23:21 PM 33.7500 -84.6000 135° Southeast 362 417 12,000 -250 Level Atlanta TRACON
Thu 12:24:15 PM 33.7333 -84.5000 101° East 317 365 11,500 -895 Descending Atlanta TRACON
Thu 12:25:15 PM 33.7333 -84.4000 90° East 304 350 10,300 -1,211 Descending Atlanta TRACON
Thu 12:26:09 PM 33.7333 -84.3167 90° East 286 329 9,200 -1,263 Descending Atlanta TRACON
Thu 12:27:09 PM 33.7333 -84.2333 90° East 279 321 7,900 -1,150 Descending Atlanta TRACON
Thu 12:28:09 PM 33.7333 -84.1333 90° East 278 320 6,900 -992 Descending Atlanta TRACON
Thu 12:29:10 PM 33.7333 -84.0333 90° East 280 322 5,900 -756 Descending Atlanta TRACON
Thu 12:30:16 PM 33.6833 -83.9667 132° Southeast 263 303 5,300 -429 Descending Atlanta TRACON
Thu 12:31:16 PM 33.6500 -84.0333 239° Southwest 230 265 5,000 -150 Descending Atlanta TRACON
Thu 12:32:16 PM 33.6500 -84.1000 270° West 231 266 5,000 -200 Level Atlanta TRACON
Thu 12:33:16 PM 33.6500 -84.1833 270° West 204 235 4,600 -400 Descending Atlanta TRACON

Login

Don't have an account? Register now (free) for customized features, flight alerts, and more!